Terminal Aerodrome Forecast
Issued by NWS Cleveland, OH

Home | Current Version | Previous Version | Graphics & Text | Print | Product List | Glossary On
Versions: 1 2 3 4 5 6 7 8 9 10 11 12 13 14 15 16 17
609
FTUS41 KCLE 091142
TAFMFD
TAF
KMFD 091142Z 0912/1012 26008KT P6SM BKN008 OVC012
     FM091500 25010KT P6SM OVC015
     FM092000 26012KT 5SM -SN SCT006 OVC012
      TEMPO 0921/0923 1 1/2SM -SN OVC006
     FM092300 27012G20KT P6SM OVC015=

USA.gov is the U.S. government's official web portal to all federal, state and local government web resources and services.